sensor_id;sensor_type;location;lat;lon;timestamp;P1;durP1;ratioP1;P2;durP2;ratioP2
26914;SDS011;14480;52.608;13.416;2022-12-05T10:28:46;43.03;;;20.77;;
26914;SDS011;14480;52.608;13.416;2022-12-05T10:34:00;43.90;;;21.73;;
26914;SDS011;14480;52.608;13.416;2022-12-05T10:39:08;48.50;;;23.15;;
26914;SDS011;14480;52.608;13.416;2022-12-05T10:44:14;49.87;;;23.10;;
26914;SDS011;14480;52.608;13.416;2022-12-05T10:49:47;50.55;;;23.85;;
26914;SDS011;14480;52.608;13.416;2022-12-05T10:54:59;48.58;;;24.90;;
26914;SDS011;14480;52.608;13.416;2022-12-05T11:00:12;52.28;;;25.38;;
26914;SDS011;14480;52.608;13.416;2022-12-05T11:05:26;53.95;;;26.40;;
26914;SDS011;14480;52.608;13.416;2022-12-05T11:10:32;53.03;;;25.63;;
26914;SDS011;14480;52.608;13.416;2022-12-05T11:15:43;53.67;;;26.23;;
26914;SDS011;14480;52.608;13.416;2022-12-05T11:20:57;54.65;;;26.15;;
26914;SDS011;14480;52.608;13.416;2022-12-05T11:26:16;58.22;;;27.67;;
26914;SDS011;14480;52.608;13.416;2022-12-05T11:32:18;60.53;;;27.83;;
26914;SDS011;14480;52.608;13.416;2022-12-05T11:38:27;58.80;;;27.88;;
26914;SDS011;14480;52.608;13.416;2022-12-05T11:50:06;63.33;;;29.07;;
26914;SDS011;14480;52.608;13.416;2022-12-05T11:55:19;64.07;;;30.58;;
26914;SDS011;14480;52.608;13.416;2022-12-05T12:00:31;59.42;;;28.70;;
26914;SDS011;14480;52.608;13.416;2022-12-05T12:12:23;53.50;;;27.02;;
26914;SDS011;14480;52.608;13.416;2022-12-05T12:24:19;59.38;;;28.63;;
26914;SDS011;14480;52.608;13.416;2022-12-05T12:29:37;63.60;;;30.25;;
26914;SDS011;14480;52.608;13.416;2022-12-05T12:35:13;50.60;;;25.80;;
26914;SDS011;14480;52.608;13.416;2022-12-05T12:40:29;59.10;;;29.20;;
26914;SDS011;14480;52.608;13.416;2022-12-05T12:46:02;59.03;;;27.77;;
26914;SDS011;14480;52.608;13.416;2022-12-05T12:51:24;60.42;;;26.92;;
26914;SDS011;14480;52.608;13.416;2022-12-05T12:56:31;56.47;;;26.35;;
26914;SDS011;14480;52.608;13.416;2022-12-05T13:01:44;54.72;;;27.00;;
26914;SDS011;14480;52.608;13.416;2022-12-05T13:06:56;60.08;;;28.02;;
26914;SDS011;14480;52.608;13.416;2022-12-05T13:12:06;53.75;;;26.73;;
26914;SDS011;14480;52.608;13.416;2022-12-05T13:17:51;56.10;;;27.48;;
26914;SDS011;14480;52.608;13.416;2022-12-05T13:23:05;59.38;;;28.02;;
26914;SDS011;14480;52.608;13.416;2022-12-05T13:28:25;60.72;;;28.15;;
26914;SDS011;14480;52.608;13.416;2022-12-05T13:33:34;55.17;;;27.00;;
26914;SDS011;14480;52.608;13.416;2022-12-05T13:38:48;58.30;;;26.98;;
26914;SDS011;14480;52.608;13.416;2022-12-05T13:44:20;64.40;;;29.05;;
26914;SDS011;14480;52.608;13.416;2022-12-05T13:49:40;60.63;;;27.60;;
26914;SDS011;14480;52.608;13.416;2022-12-05T13:55:20;60.97;;;27.92;;
26914;SDS011;14480;52.608;13.416;2022-12-05T14:01:43;63.60;;;27.98;;
26914;SDS011;14480;52.608;13.416;2022-12-05T14:06:59;61.70;;;29.50;;
26914;SDS011;14480;52.608;13.416;2022-12-05T14:18:08;63.33;;;29.30;;
26914;SDS011;14480;52.608;13.416;2022-12-05T14:23:22;66.07;;;30.33;;
26914;SDS011;14480;52.608;13.416;2022-12-05T14:28:52;71.32;;;31.52;;
26914;SDS011;14480;52.608;13.416;2022-12-05T14:35:00;70.68;;;31.98;;
26914;SDS011;14480;52.608;13.416;2022-12-05T14:40:31;74.00;;;31.67;;
26914;SDS011;14480;52.608;13.416;2022-12-05T14:45:56;76.00;;;34.17;;
26914;SDS011;14480;52.608;13.416;2022-12-05T14:51:44;78.35;;;32.13;;
26914;SDS011;14480;52.608;13.416;2022-12-05T14:57:01;82.00;;;34.67;;
26914;SDS011;14480;52.608;13.416;2022-12-05T15:02:18;84.00;;;34.70;;
26914;SDS011;14480;52.608;13.416;2022-12-05T15:07:27;83.60;;;33.50;;
26914;SDS011;14480;52.608;13.416;2022-12-05T15:18:23;89.35;;;36.00;;
26914;SDS011;14480;52.608;13.416;2022-12-05T15:23:44;93.88;;;37.13;;
26914;SDS011;14480;52.608;13.416;2022-12-05T15:28:56;84.88;;;35.17;;
26914;SDS011;14480;52.608;13.416;2022-12-05T15:34:11;92.78;;;36.97;;
26914;SDS011;14480;52.608;13.416;2022-12-05T15:39:22;93.53;;;37.00;;
26914;SDS011;14480;52.608;13.416;2022-12-05T15:44:30;93.57;;;36.95;;
26914;SDS011;14480;52.608;13.416;2022-12-05T15:49:41;95.43;;;37.30;;
26914;SDS011;14480;52.608;13.416;2022-12-05T15:54:46;98.55;;;39.10;;
26914;SDS011;14480;52.608;13.416;2022-12-05T15:59:53;103.28;;;39.70;;
26914;SDS011;14480;52.608;13.416;2022-12-05T16:05:23;95.93;;;37.92;;
26914;SDS011;14480;52.608;13.416;2022-12-05T16:10:33;86.82;;;35.63;;
26914;SDS011;14480;52.608;13.416;2022-12-05T16:15:40;93.90;;;36.80;;
26914;SDS011;14480;52.608;13.416;2022-12-05T16:38:12;94.50;;;36.10;;
26914;SDS011;14480;52.608;13.416;2022-12-05T16:43:41;96.07;;;37.17;;
26914;SDS011;14480;52.608;13.416;2022-12-05T16:54:47;100.40;;;38.83;;
26914;SDS011;14480;52.608;13.416;2022-12-05T17:00:06;98.53;;;37.05;;
26914;SDS011;14480;52.608;13.416;2022-12-05T17:05:20;104.95;;;39.28;;
26914;SDS011;14480;52.608;13.416;2022-12-05T17:10:26;105.43;;;37.63;;
26914;SDS011;14480;52.608;13.416;2022-12-05T17:15:31;99.18;;;37.88;;
26914;SDS011;14480;52.608;13.416;2022-12-05T17:20:39;101.45;;;37.85;;
26914;SDS011;14480;52.608;13.416;2022-12-05T17:25:45;93.82;;;36.70;;
26914;SDS011;14480;52.608;13.416;2022-12-05T17:30:59;98.00;;;37.70;;
26914;SDS011;14480;52.608;13.416;2022-12-05T17:42:12;102.80;;;38.53;;
26914;SDS011;14480;52.608;13.416;2022-12-05T17:48:33;97.82;;;38.30;;
26914;SDS011;14480;52.608;13.416;2022-12-05T17:53:41;95.75;;;37.10;;
26914;SDS011;14480;52.608;13.416;2022-12-05T17:58:49;96.55;;;37.78;;
26914;SDS011;14480;52.608;13.416;2022-12-05T18:03:54;97.05;;;37.92;;
26914;SDS011;14480;52.608;13.416;2022-12-05T18:22:41;100.90;;;39.05;;
26914;SDS011;14480;52.608;13.416;2022-12-05T18:33:21;95.45;;;37.85;;
26914;SDS011;14480;52.608;13.416;2022-12-05T18:44:08;108.93;;;40.53;;
26914;SDS011;14480;52.608;13.416;2022-12-05T18:49:41;113.72;;;42.28;;
26914;SDS011;14480;52.608;13.416;2022-12-05T18:54:45;104.33;;;40.73;;
26914;SDS011;14480;52.608;13.416;2022-12-05T19:00:11;109.25;;;42.13;;
26914;SDS011;14480;52.608;13.416;2022-12-05T19:05:18;108.85;;;41.65;;
26914;SDS011;14480;52.608;13.416;2022-12-05T19:11:10;105.38;;;40.03;;
26914;SDS011;14480;52.608;13.416;2022-12-05T19:17:20;84.50;;;35.15;;
26914;SDS011;14480;52.608;13.416;2022-12-05T19:23:34;80.50;;;32.47;;
26914;SDS011;14480;52.608;13.416;2022-12-05T19:29:37;64.03;;;26.83;;
26914;SDS011;14480;52.608;13.416;2022-12-05T19:34:42;64.28;;;25.92;;
26914;SDS011;14480;52.608;13.416;2022-12-05T19:39:49;64.25;;;25.35;;
26914;SDS011;14480;52.608;13.416;2022-12-05T19:44:53;61.95;;;25.90;;
26914;SDS011;14480;52.608;13.416;2022-12-05T19:49:58;55.67;;;24.70;;
26914;SDS011;14480;52.608;13.416;2022-12-05T19:55:03;65.43;;;25.77;;
26914;SDS011;14480;52.608;13.416;2022-12-05T20:00:09;61.95;;;25.73;;
26914;SDS011;14480;52.608;13.416;2022-12-05T20:05:21;66.32;;;28.33;;
26914;SDS011;14480;52.608;13.416;2022-12-05T20:10:26;66.88;;;26.23;;
26914;SDS011;14480;52.608;13.416;2022-12-05T20:15:45;66.55;;;27.58;;
26914;SDS011;14480;52.608;13.416;2022-12-05T20:20:59;53.90;;;23.77;;
26914;SDS011;14480;52.608;13.416;2022-12-05T20:26:05;70.53;;;27.33;;
26914;SDS011;14480;52.608;13.416;2022-12-05T20:31:12;57.53;;;24.63;;
26914;SDS011;14480;52.608;13.416;2022-12-05T20:36:20;62.28;;;26.67;;
26914;SDS011;14480;52.608;13.416;2022-12-05T20:41:27;62.58;;;26.45;;
26914;SDS011;14480;52.608;13.416;2022-12-05T20:46:35;68.22;;;28.45;;
26914;SDS011;14480;52.608;13.416;2022-12-05T20:51:41;65.20;;;26.83;;
26914;SDS011;14480;52.608;13.416;2022-12-05T20:56:47;79.18;;;31.30;;
26914;SDS011;14480;52.608;13.416;2022-12-05T21:02:53;78.60;;;31.73;;
26914;SDS011;14480;52.608;13.416;2022-12-05T21:08:20;68.60;;;29.55;;
26914;SDS011;14480;52.608;13.416;2022-12-05T21:13:32;68.47;;;29.47;;
26914;SDS011;14480;52.608;13.416;2022-12-05T21:18:37;60.63;;;26.27;;
26914;SDS011;14480;52.608;13.416;2022-12-05T21:23:44;67.13;;;28.85;;
26914;SDS011;14480;52.608;13.416;2022-12-05T21:28:51;65.18;;;28.38;;
26914;SDS011;14480;52.608;13.416;2022-12-05T21:34:12;66.47;;;28.92;;
26914;SDS011;14480;52.608;13.416;2022-12-05T21:39:48;72.65;;;29.33;;
26914;SDS011;14480;52.608;13.416;2022-12-05T21:44:53;67.65;;;29.45;;
26914;SDS011;14480;52.608;13.416;2022-12-05T21:50:04;61.10;;;26.75;;
26914;SDS011;14480;52.608;13.416;2022-12-05T21:55:14;65.63;;;29.17;;
26914;SDS011;14480;52.608;13.416;2022-12-05T22:00:20;57.88;;;25.23;;
26914;SDS011;14480;52.608;13.416;2022-12-05T22:05:24;61.05;;;25.80;;
